createdAt,value
2023-04-12T00:00:23.378Z,817.00
2023-04-12T00:01:24.376Z,816.00
2023-04-12T00:02:23.463Z,818.00
2023-04-12T00:03:24.543Z,815.00
2023-04-12T00:04:24.639Z,812.00
2023-04-12T00:05:23.439Z,813.00
2023-04-12T00:06:23.365Z,810.00
2023-04-12T00:07:24.403Z,807.00
2023-04-12T00:08:23.392Z,809.00
2023-04-12T00:09:24.363Z,807.00
2023-04-12T00:10:24.361Z,808.00
2023-04-12T00:11:24.350Z,805.00
2023-04-12T00:12:24.342Z,806.00
2023-04-12T00:13:23.339Z,805.00
2023-04-12T00:14:24.363Z,802.00
2023-04-12T00:15:23.332Z,800.00
2023-04-12T00:16:24.549Z,799.00
2023-04-12T00:17:24.412Z,797.00
2023-04-12T00:18:24.367Z,798.00
2023-04-12T00:19:24.349Z,803.00
2023-04-12T00:20:24.357Z,804.00
2023-04-12T00:21:24.340Z,803.00
2023-04-12T00:22:24.385Z,802.00
2023-04-12T00:23:23.340Z,802.00
2023-04-12T00:24:23.435Z,803.00
2023-04-12T00:25:24.363Z,803.00
2023-04-12T00:26:24.327Z,803.00
2023-04-12T00:27:24.327Z,805.00
2023-04-12T00:28:23.333Z,803.00
2023-04-12T00:29:24.351Z,801.00
2023-04-12T00:30:24.327Z,800.00
2023-04-12T00:31:24.393Z,797.00
2023-04-12T00:32:24.384Z,795.00
2023-04-12T00:33:23.350Z,795.00
2023-04-12T00:34:24.351Z,799.00
2023-04-12T00:35:24.328Z,800.00
2023-04-12T00:36:24.332Z,801.00
2023-04-12T00:37:24.351Z,799.00
2023-04-12T00:38:24.344Z,797.00
2023-04-12T00:39:24.363Z,794.00
2023-04-12T00:40:24.361Z,792.00
2023-04-12T00:41:24.352Z,794.00
2023-04-12T00:42:24.371Z,793.00
2023-04-12T00:43:24.353Z,794.00
2023-04-12T00:44:24.357Z,793.00
2023-04-12T00:45:23.347Z,793.00
2023-04-12T00:46:24.391Z,792.00
2023-04-12T00:47:24.368Z,790.00
2023-04-12T00:48:24.346Z,790.00
2023-04-12T00:49:23.364Z,789.00
2023-04-12T00:50:23.338Z,789.00
2023-04-12T00:51:24.355Z,789.00
2023-04-12T00:52:23.362Z,787.00
2023-04-12T00:53:24.356Z,789.00
2023-04-12T00:54:23.358Z,788.00
2023-04-12T00:55:24.339Z,790.00
2023-04-12T00:56:24.374Z,788.00
2023-04-12T00:57:24.379Z,788.00
2023-04-12T00:58:23.377Z,787.00
2023-04-12T00:59:24.375Z,788.00
2023-04-12T01:00:23.379Z,788.00
2023-04-12T01:01:24.452Z,788.00
2023-04-12T01:02:24.498Z,789.00
2023-04-12T01:03:23.907Z,788.00
2023-04-12T01:04:23.394Z,790.00
2023-04-12T01:05:23.408Z,792.00
2023-04-12T01:06:23.396Z,790.00
2023-04-12T01:07:23.426Z,788.00
2023-04-12T01:08:23.416Z,788.00
2023-04-12T01:09:24.405Z,789.00
2023-04-12T01:10:24.408Z,788.00
2023-04-12T01:11:23.414Z,787.00
2023-04-12T01:12:23.420Z,788.00
2023-04-12T01:13:24.448Z,790.00
2023-04-12T01:14:24.421Z,791.00
2023-04-12T01:15:24.435Z,791.00
2023-04-12T01:16:24.442Z,790.00
2023-04-12T01:17:23.478Z,789.00
2023-04-12T01:18:24.440Z,791.00
2023-04-12T01:19:24.446Z,789.00
2023-04-12T01:20:23.401Z,787.00
2023-04-12T01:21:24.376Z,789.00
2023-04-12T01:22:24.397Z,789.00
2023-04-12T01:23:24.395Z,787.00
2023-04-12T01:24:23.376Z,787.00
2023-04-12T01:25:23.388Z,785.00
2023-04-12T01:26:23.446Z,785.00
2023-04-12T01:27:24.403Z,784.00
2023-04-12T01:28:24.409Z,785.00
2023-04-12T01:29:23.390Z,788.00
2023-04-12T01:30:24.383Z,791.00
2023-04-12T01:31:23.401Z,790.00
2023-04-12T01:32:24.431Z,788.00
2023-04-12T01:33:24.411Z,786.00
2023-04-12T01:34:23.439Z,785.00
2023-04-12T01:35:24.512Z,785.00
2023-04-12T01:36:24.485Z,784.00
2023-04-12T01:37:23.515Z,784.00
2023-04-12T01:38:24.534Z,783.00
2023-04-12T01:39:24.579Z,781.00
2023-04-12T01:40:24.627Z,778.00
2023-04-12T01:41:23.620Z,777.00
2023-04-12T01:42:23.664Z,778.00
2023-04-12T01:43:24.696Z,780.00
2023-04-12T01:44:24.829Z,779.00
2023-04-12T01:45:23.796Z,779.00
2023-04-12T01:46:24.825Z,779.00
2023-04-12T01:47:24.828Z,778.00
2023-04-12T01:48:23.847Z,777.00
2023-04-12T01:49:24.887Z,777.00
2023-04-12T01:50:23.934Z,776.00
2023-04-12T01:51:24.953Z,778.00
2023-04-12T01:52:25.009Z,777.00
2023-04-12T01:53:25.032Z,776.00
2023-04-12T01:54:25.068Z,776.00
2023-04-12T01:55:25.145Z,775.00
2023-04-12T01:56:24.144Z,774.00
2023-04-12T01:57:24.201Z,771.00
2023-04-12T01:58:25.275Z,772.00
2023-04-12T01:59:24.297Z,771.00
2023-04-12T02:00:25.391Z,770.00
2023-04-12T02:01:24.443Z,772.00
2023-04-12T02:02:24.545Z,771.00
2023-04-12T02:03:24.699Z,772.00
2023-04-12T02:04:25.600Z,773.00
2023-04-12T02:05:25.657Z,774.00
2023-04-12T02:06:25.709Z,775.00
2023-04-12T02:07:25.781Z,776.00
2023-04-12T02:08:25.837Z,774.00
2023-04-12T02:09:25.897Z,773.00
2023-04-12T02:10:25.979Z,771.00
2023-04-12T02:11:26.028Z,770.00
2023-04-12T02:12:25.090Z,770.00
2023-04-12T02:13:26.161Z,770.00
2023-04-12T02:14:25.224Z,771.00
2023-04-12T02:15:26.292Z,768.00
2023-04-12T02:16:26.407Z,768.00
2023-04-12T02:17:26.443Z,764.00
2023-04-12T02:18:25.478Z,762.00
2023-04-12T02:19:26.514Z,763.00
2023-04-12T02:20:25.602Z,763.00
2023-04-12T02:21:25.681Z,763.00
2023-04-12T02:22:26.697Z,761.00
2023-04-12T02:23:25.749Z,760.00
2023-04-12T02:24:26.819Z,761.00
2023-04-12T02:25:26.897Z,760.00
2023-04-12T02:26:26.964Z,758.00
2023-04-12T02:27:26.019Z,758.00
2023-04-12T02:28:26.076Z,756.00
2023-04-12T02:29:27.139Z,755.00
2023-04-12T02:30:26.218Z,754.00
2023-04-12T02:31:26.256Z,756.00
2023-04-12T02:32:27.414Z,753.00
2023-04-12T02:33:26.401Z,753.00
2023-04-12T02:34:26.452Z,752.00
2023-04-12T02:35:27.560Z,753.00
2023-04-12T02:36:26.590Z,754.00
2023-04-12T02:37:26.641Z,755.00
2023-04-12T02:38:27.706Z,754.00
2023-04-12T02:39:27.780Z,755.00
2023-04-12T02:40:27.839Z,755.00
2023-04-12T02:41:27.903Z,754.00
2023-04-12T02:42:26.979Z,755.00
2023-04-12T02:43:28.021Z,754.00
2023-04-12T02:44:28.088Z,751.00
2023-04-12T02:45:28.247Z,750.00
2023-04-12T02:46:27.413Z,750.00
2023-04-12T02:47:28.335Z,751.00
2023-04-12T02:48:28.346Z,750.00
2023-04-12T02:49:28.396Z,747.00
2023-04-12T02:50:27.462Z,750.00
2023-04-12T02:51:28.537Z,748.00
2023-04-12T02:52:28.567Z,748.00
2023-04-12T02:53:27.639Z,749.00
2023-04-12T02:54:27.716Z,745.00
2023-04-12T02:55:27.778Z,745.00
2023-04-12T02:56:27.825Z,747.00
2023-04-12T02:57:28.911Z,745.00
2023-04-12T02:58:28.945Z,744.00
2023-04-12T02:59:29.026Z,743.00
2023-04-12T03:00:29.107Z,743.00
2023-04-12T03:01:28.223Z,744.00
2023-04-12T03:02:29.348Z,744.00
2023-04-12T03:03:28.403Z,746.00
2023-04-12T03:04:29.481Z,748.00
2023-04-12T03:05:29.395Z,748.00
2023-04-12T03:06:29.457Z,749.00
2023-04-12T03:07:29.506Z,749.00
2023-04-12T03:08:28.574Z,746.00
2023-04-12T03:09:29.686Z,746.00
2023-04-12T03:10:28.718Z,744.00
2023-04-12T03:11:28.777Z,744.00
2023-04-12T03:12:28.845Z,743.00
2023-04-12T03:13:29.912Z,743.00
2023-04-12T03:14:29.956Z,743.00
2023-04-12T03:15:29.054Z,744.00
2023-04-12T03:16:30.254Z,743.00
2023-04-12T03:17:30.204Z,742.00
2023-04-12T03:18:30.221Z,739.00
2023-04-12T03:19:30.266Z,738.00
2023-04-12T03:20:29.360Z,737.00
2023-04-12T03:21:30.411Z,738.00
2023-04-12T03:22:30.445Z,740.00
2023-04-12T03:23:29.496Z,739.00
2023-04-12T03:24:30.558Z,738.00
2023-04-12T03:25:29.642Z,736.00
2023-04-12T03:26:29.686Z,735.00
2023-04-12T03:27:29.764Z,734.00
2023-04-12T03:28:30.814Z,733.00
2023-04-12T03:29:30.892Z,735.00
2023-04-12T03:30:30.944Z,735.00
2023-04-12T03:31:31.047Z,737.00
2023-04-12T03:32:31.122Z,736.00
2023-04-12T03:33:31.149Z,737.00
2023-04-12T03:34:31.205Z,738.00
2023-04-12T03:35:31.362Z,737.00
2023-04-12T03:36:30.317Z,735.00
2023-04-12T03:37:30.437Z,732.00
2023-04-12T03:38:30.432Z,729.00
2023-04-12T03:39:31.511Z,728.00
2023-04-12T03:40:31.562Z,727.00
2023-04-12T03:41:31.615Z,731.00
2023-04-12T03:42:33.540Z,729.00
2023-04-12T03:43:31.675Z,730.00
2023-04-12T03:44:31.668Z,730.00
2023-04-12T03:45:31.666Z,729.00
2023-04-12T03:46:31.701Z,727.00
2023-04-12T03:47:31.669Z,727.00
2023-04-12T03:48:30.638Z,727.00
2023-04-12T03:49:30.630Z,728.00
2023-04-12T03:50:30.622Z,729.00
2023-04-12T03:51:31.700Z,728.00
2023-04-12T03:52:30.624Z,729.00
2023-04-12T03:53:30.625Z,728.00
2023-04-12T03:54:30.605Z,728.00
2023-04-12T03:55:31.584Z,728.00
2023-04-12T03:56:31.578Z,727.00
2023-04-12T03:57:30.575Z,727.00
2023-04-12T03:58:31.558Z,728.00
2023-04-12T03:59:31.561Z,726.00
2023-04-12T04:00:31.548Z,724.00
2023-04-12T04:01:31.572Z,722.00
2023-04-12T04:02:31.928Z,722.00
2023-04-12T04:03:30.665Z,720.00
2023-04-12T04:04:31.704Z,721.00
2023-04-12T04:05:31.515Z,720.00
2023-04-12T04:06:31.514Z,721.00
2023-04-12T04:07:31.609Z,720.00
2023-04-12T04:08:31.604Z,718.00
2023-04-12T04:09:30.648Z,720.00
2023-04-12T04:10:31.696Z,723.00
2023-04-12T04:11:31.766Z,723.00
2023-04-12T04:12:30.821Z,725.00
2023-04-12T04:13:31.879Z,723.00
2023-04-12T04:14:30.978Z,722.00
2023-04-12T04:15:31.991Z,723.00
2023-04-12T04:16:31.236Z,725.00
2023-04-12T04:17:31.177Z,728.00
2023-04-12T04:18:32.190Z,728.00
2023-04-12T04:19:32.246Z,724.00
2023-04-12T04:20:32.318Z,723.00
2023-04-12T04:21:32.417Z,724.00
2023-04-12T04:22:32.459Z,724.00
2023-04-12T04:23:32.511Z,722.00
2023-04-12T04:24:32.550Z,722.00
2023-04-12T04:25:32.602Z,722.00
2023-04-12T04:26:32.708Z,722.00
2023-04-12T04:27:31.747Z,720.00
2023-04-12T04:28:34.186Z,720.00
2023-04-12T04:29:31.809Z,719.00
2023-04-12T04:30:32.807Z,718.00
2023-04-12T04:31:32.853Z,716.00
2023-04-12T04:32:31.826Z,716.00
2023-04-12T04:33:32.771Z,715.00
2023-04-12T04:34:32.754Z,713.00
2023-04-12T04:35:32.785Z,713.00
2023-04-12T04:36:32.750Z,712.00
2023-04-12T04:37:32.755Z,713.00
2023-04-12T04:38:32.745Z,714.00
2023-04-12T04:39:31.772Z,716.00
2023-04-12T04:40:32.715Z,716.00
2023-04-12T04:41:32.722Z,716.00
2023-04-12T04:42:32.697Z,715.00
2023-04-12T04:43:31.698Z,716.00
2023-04-12T04:44:32.693Z,716.00
2023-04-12T04:45:31.709Z,714.00
2023-04-12T04:46:32.688Z,713.00
2023-04-12T04:47:32.818Z,713.00
2023-04-12T04:48:32.659Z,714.00
2023-04-12T04:49:31.668Z,713.00
2023-04-12T04:50:32.643Z,710.00
2023-04-12T04:51:31.632Z,708.00
2023-04-12T04:52:32.685Z,707.00
2023-04-12T04:53:31.742Z,707.00
2023-04-12T04:54:32.802Z,706.00
2023-04-12T04:55:32.894Z,707.00
2023-04-12T04:56:32.957Z,707.00
2023-04-12T04:57:32.997Z,707.00
2023-04-12T04:58:32.066Z,706.00
2023-04-12T04:59:33.140Z,706.00
2023-04-12T05:00:33.201Z,704.00
2023-04-12T05:01:33.316Z,703.00
2023-04-12T05:02:32.406Z,705.00
2023-04-12T05:03:33.425Z,704.00
2023-04-12T05:04:33.435Z,705.00
2023-04-12T05:05:32.582Z,704.00
2023-04-12T05:06:32.612Z,703.00
2023-04-12T05:07:33.647Z,702.00
2023-04-12T05:08:32.722Z,701.00
2023-04-12T05:09:33.756Z,699.00
2023-04-12T05:10:32.813Z,699.00
2023-04-12T05:11:33.914Z,701.00
2023-04-12T05:12:33.943Z,701.00
2023-04-12T05:13:34.015Z,704.00
2023-04-12T05:14:45.829Z,702.00
2023-04-12T05:15:34.074Z,703.00
2023-04-12T05:16:33.111Z,703.00
2023-04-12T05:17:33.149Z,702.00
2023-04-12T05:18:33.029Z,705.00
2023-04-12T05:19:34.052Z,711.00
2023-04-12T05:20:34.032Z,718.00
2023-04-12T05:21:33.241Z,722.00
2023-04-12T05:22:34.036Z,717.00
2023-04-12T05:23:33.996Z,714.00
2023-04-12T05:24:33.990Z,714.00
2023-04-12T05:25:34.228Z,714.00
2023-04-12T05:26:34.710Z,713.00
2023-04-12T05:27:33.007Z,715.00
2023-04-12T05:28:33.106Z,719.00
2023-04-12T05:29:34.069Z,719.00
2023-04-12T05:30:32.971Z,722.00
2023-04-12T05:31:33.973Z,728.00
2023-04-12T05:32:34.229Z,735.00
2023-04-12T05:33:33.960Z,740.00
2023-04-12T05:34:33.923Z,752.00
2023-04-12T05:35:33.977Z,764.00
2023-04-12T05:36:33.943Z,770.00
2023-04-12T05:37:32.889Z,780.00
2023-04-12T05:38:33.912Z,792.00
2023-04-12T05:39:33.881Z,803.00
2023-04-12T05:40:33.862Z,812.00
2023-04-12T05:41:32.876Z,827.00
2023-04-12T05:42:32.900Z,844.00
2023-04-12T05:43:33.952Z,870.00
2023-04-12T05:44:33.927Z,887.00
2023-04-12T05:45:34.123Z,925.00
2023-04-12T05:46:34.049Z,946.00
2023-04-12T05:47:33.996Z,974.00
2023-04-12T05:48:34.085Z,1052.00
2023-04-12T05:49:32.947Z,1049.00
2023-04-12T05:50:34.164Z,1057.00
2023-04-12T05:51:40.925Z,1068.00
2023-04-12T05:52:38.085Z,1169.00
2023-04-12T05:53:33.901Z,1266.00
2023-04-12T05:54:32.887Z,1249.00
2023-04-12T05:55:35.871Z,1263.00
2023-04-12T05:56:33.893Z,1273.00
2023-04-12T05:57:33.898Z,1350.00
2023-04-12T05:58:34.047Z,1383.00
2023-04-12T05:59:33.914Z,1390.00
2023-04-12T06:00:33.963Z,1392.00
2023-04-12T06:01:32.826Z,1390.00
2023-04-12T06:02:34.207Z,1391.00
2023-04-12T06:03:32.974Z,1394.00
2023-04-12T06:04:46.849Z,1399.00
2023-04-12T06:05:33.856Z,1399.00
2023-04-12T06:06:33.827Z,1399.00
2023-04-12T06:07:32.848Z,1402.00
2023-04-12T06:08:35.471Z,1401.00
2023-04-12T06:09:33.785Z,1402.00
2023-04-12T06:10:33.855Z,1402.00
2023-04-12T06:11:33.762Z,1400.00
2023-04-12T06:12:36.610Z,1400.00
2023-04-12T06:13:33.742Z,1396.00
2023-04-12T06:14:33.787Z,1393.00
2023-04-12T06:15:32.778Z,1391.00
2023-04-12T06:16:33.770Z,1385.00
2023-04-12T06:17:33.826Z,1384.00
2023-04-12T06:18:32.720Z,1381.00
2023-04-12T06:19:32.733Z,1384.00
2023-04-12T06:20:32.715Z,1383.00
2023-04-12T06:21:33.704Z,1380.00
2023-04-12T06:22:33.686Z,1379.00
2023-04-12T06:23:33.744Z,1379.00
2023-04-12T06:24:33.674Z,1379.00
2023-04-12T06:25:33.680Z,1374.00
2023-04-12T06:26:39.873Z,1371.00
2023-04-12T06:27:33.762Z,1367.00
2023-04-12T06:28:32.642Z,1367.00
2023-04-12T06:29:33.649Z,1365.00
2023-04-12T06:30:32.647Z,1368.00
2023-04-12T06:31:33.771Z,1388.00
2023-04-12T06:32:33.697Z,1389.00
2023-04-12T06:33:32.620Z,1384.00
2023-04-12T06:34:34.796Z,1377.00
2023-04-12T06:35:33.614Z,1375.00
2023-04-12T06:36:33.595Z,1369.00
2023-04-12T06:37:32.597Z,1363.00
2023-04-12T06:38:33.558Z,1357.00
2023-04-12T06:39:33.562Z,1354.00
2023-04-12T06:40:33.592Z,1353.00
2023-04-12T06:41:32.616Z,1354.00
2023-04-12T06:42:33.618Z,1352.00
2023-04-12T06:43:33.652Z,1350.00
2023-04-12T06:44:33.634Z,1348.00
2023-04-12T06:45:33.637Z,1347.00
2023-04-12T06:46:32.720Z,1347.00
2023-04-12T06:47:33.731Z,1346.00
2023-04-12T06:48:32.698Z,1343.00
2023-04-12T06:50:32.735Z,1337.00
2023-04-12T06:51:33.862Z,1336.00
2023-04-12T06:52:33.079Z,1333.00
2023-04-12T06:53:33.907Z,1335.00
2023-04-12T06:54:34.075Z,1335.00
2023-04-12T06:55:32.783Z,1334.00
2023-04-12T06:56:33.755Z,1364.00
2023-04-12T06:57:34.084Z,1435.00
2023-04-12T06:58:33.756Z,1536.00
2023-04-12T06:59:33.747Z,1561.00
2023-04-12T07:00:32.756Z,1586.00
2023-04-12T07:01:32.706Z,1614.00
2023-04-12T07:02:33.852Z,1669.00
2023-04-12T07:03:33.826Z,1686.00
2023-04-12T07:04:32.706Z,1702.00
2023-04-12T07:05:32.717Z,1740.00
2023-04-12T07:06:32.675Z,1782.00
2023-04-12T07:07:32.720Z,1805.00
2023-04-12T07:08:33.660Z,1828.00
2023-04-12T07:09:32.661Z,1857.00
2023-04-12T07:10:32.649Z,1886.00
2023-04-12T07:11:33.668Z,1911.00
2023-04-12T07:12:32.675Z,1931.00
2023-04-12T07:13:33.625Z,1960.00
2023-04-12T07:14:33.633Z,2014.00
2023-04-12T07:15:33.623Z,2029.00
2023-04-12T07:16:32.854Z,2051.00
2023-04-12T07:17:33.631Z,2075.00
2023-04-12T07:18:33.651Z,2092.00
2023-04-12T07:19:32.720Z,2116.00
2023-04-12T07:20:32.721Z,2144.00
2023-04-12T07:21:33.769Z,2177.00
2023-04-12T07:22:33.807Z,2208.00
2023-04-12T07:23:33.870Z,2238.00
2023-04-12T07:24:33.921Z,2256.00
2023-04-12T07:25:32.851Z,2282.00
2023-04-12T07:26:33.872Z,2315.00
2023-04-12T07:27:32.896Z,2336.00
2023-04-12T07:28:33.962Z,2349.00
2023-04-12T07:29:33.977Z,2349.00
2023-04-12T07:30:32.989Z,2332.00
2023-04-12T07:31:33.041Z,2183.00
2023-04-12T07:32:33.269Z,2105.00
2023-04-12T07:33:33.299Z,1961.00
2023-04-12T07:34:33.269Z,1859.00
2023-04-12T07:35:34.293Z,1842.00
2023-04-12T07:36:40.290Z,1842.00
2023-04-12T07:37:34.319Z,1837.00
2023-04-12T07:38:34.300Z,1839.00
2023-04-12T07:39:34.305Z,1842.00
2023-04-12T07:40:34.282Z,1842.00
2023-04-12T07:41:34.292Z,1848.00
2023-04-12T07:42:34.302Z,1857.00
2023-04-12T07:43:33.286Z,1869.00
2023-04-12T07:44:36.422Z,1886.00
2023-04-12T07:45:34.242Z,1903.00
2023-04-12T07:46:33.277Z,2015.00
2023-04-12T07:47:34.648Z,2024.00
2023-04-12T07:48:34.271Z,2022.00
2023-04-12T07:49:33.207Z,2039.00
2023-04-12T07:50:34.222Z,2058.00
2023-04-12T07:51:34.634Z,1870.00
2023-04-12T07:52:34.593Z,1868.00
2023-04-12T07:53:34.253Z,1846.00
2023-04-12T07:54:33.168Z,1745.00
2023-04-12T07:55:33.166Z,1759.00
2023-04-12T07:56:34.180Z,1771.00
2023-04-12T07:57:34.308Z,1787.00
2023-04-12T07:58:34.178Z,1822.00
2023-04-12T07:59:34.144Z,1833.00
2023-04-12T08:00:33.150Z,1834.00
2023-04-12T08:01:34.229Z,1833.00
2023-04-12T08:02:34.727Z,1825.00
2023-04-12T08:03:34.405Z,1815.00
2023-04-12T08:04:34.415Z,1807.00
2023-04-12T08:05:34.510Z,1799.00
2023-04-12T08:06:34.619Z,1784.00
2023-04-12T08:07:34.718Z,1772.00
2023-04-12T08:08:34.636Z,1759.00
2023-04-12T08:09:33.691Z,1746.00
2023-04-12T08:10:33.768Z,1732.00
2023-04-12T08:11:34.815Z,1721.00
2023-04-12T08:12:34.879Z,1721.00
2023-04-12T08:13:34.933Z,1727.00
2023-04-12T08:14:33.964Z,1736.00
2023-04-12T08:15:35.067Z,1768.00
2023-04-12T08:16:34.037Z,1786.00
2023-04-12T08:17:34.093Z,1828.00
2023-04-12T08:18:35.097Z,1837.00
2023-04-12T08:19:35.131Z,1883.00
2023-04-12T08:20:35.258Z,1926.00
2023-04-12T08:21:35.188Z,1946.00
2023-04-12T08:22:34.169Z,2059.00
2023-04-12T08:23:35.244Z,2039.00
2023-04-12T08:24:35.231Z,2051.00
2023-04-12T08:25:35.269Z,2121.00
2023-04-12T08:26:35.323Z,2121.00
2023-04-12T08:27:34.316Z,2145.00
2023-04-12T08:28:36.419Z,2167.00
2023-04-12T08:29:34.297Z,2190.00
2023-04-12T08:30:34.320Z,2206.00
2023-04-12T08:31:35.414Z,2212.00
2023-04-12T08:32:34.386Z,2282.00
2023-04-12T08:33:35.294Z,2310.00
2023-04-12T08:34:35.287Z,2331.00
2023-04-12T08:35:35.290Z,2349.00
2023-04-12T08:36:34.275Z,2369.00
2023-04-12T08:37:34.623Z,2389.00
2023-04-12T08:38:44.993Z,2426.00
2023-04-12T08:39:35.289Z,2441.00
2023-04-12T08:40:34.268Z,2465.00
2023-04-12T08:41:37.613Z,2510.00
2023-04-12T08:42:34.614Z,2526.00
2023-04-12T08:43:34.239Z,2547.00
2023-04-12T08:44:34.213Z,2613.00
2023-04-12T08:45:35.262Z,2653.00
2023-04-12T08:46:34.276Z,2648.00
2023-04-12T08:47:35.657Z,2643.00
2023-04-12T08:48:35.201Z,2642.00
2023-04-12T08:49:34.180Z,2640.00
2023-04-12T08:50:35.179Z,2665.00
2023-04-12T08:51:35.172Z,2674.00
2023-04-12T08:52:35.621Z,2686.00
2023-04-12T08:53:34.156Z,2808.00
2023-04-12T08:54:34.171Z,2834.00
2023-04-12T08:55:35.194Z,2856.00
2023-04-12T08:56:34.149Z,2902.00
2023-04-12T08:57:35.647Z,2480.00
2023-04-12T08:58:34.158Z,2041.00
2023-04-12T08:59:35.116Z,1394.00
2023-04-12T09:00:35.125Z,1246.00
2023-04-12T09:01:34.105Z,1215.00
2023-04-12T09:02:35.249Z,1074.00
2023-04-12T09:03:35.251Z,974.00
2023-04-12T09:04:35.167Z,954.00
2023-04-12T09:05:35.072Z,970.00
2023-04-12T09:06:35.051Z,876.00
2023-04-12T09:07:35.107Z,801.00
2023-04-12T09:08:35.041Z,772.00
2023-04-12T09:09:34.056Z,781.00
2023-04-12T09:10:35.065Z,792.00
2023-04-12T09:11:34.286Z,794.00
2023-04-12T09:12:34.015Z,830.00
2023-04-12T09:13:34.005Z,846.00
2023-04-12T09:14:35.021Z,775.00
2023-04-12T09:15:35.054Z,855.00
2023-04-12T09:16:35.146Z,793.00
2023-04-12T09:17:35.083Z,878.00
2023-04-12T09:18:34.138Z,712.00
2023-04-12T09:19:35.155Z,699.00
2023-04-12T09:20:35.160Z,698.00
2023-04-12T09:21:35.256Z,690.00
2023-04-12T09:22:35.300Z,672.00
2023-04-12T09:23:35.303Z,659.00
2023-04-12T09:24:34.354Z,637.00
2023-04-12T09:25:34.399Z,662.00
2023-04-12T09:26:34.463Z,628.00
2023-04-12T09:27:35.555Z,635.00
2023-04-12T09:28:35.535Z,646.00
2023-04-12T09:29:35.572Z,614.00
2023-04-12T09:30:35.604Z,630.00
2023-04-12T09:31:34.668Z,692.00
2023-04-12T09:32:34.740Z,700.00
2023-04-12T09:33:34.714Z,707.00
2023-04-12T09:34:35.687Z,725.00
2023-04-12T09:35:34.739Z,730.00
2023-04-12T09:36:34.726Z,738.00
2023-04-12T09:37:34.726Z,757.00
2023-04-12T09:38:35.714Z,866.00
2023-04-12T09:39:35.735Z,907.00
2023-04-12T09:40:34.786Z,910.00
2023-04-12T09:41:35.832Z,916.00
2023-04-12T09:42:35.879Z,927.00
2023-04-12T09:43:36.057Z,937.00
2023-04-12T09:44:36.008Z,1008.00
2023-04-12T09:45:36.078Z,1022.00
2023-04-12T09:46:36.209Z,1035.00
2023-04-12T09:47:35.697Z,1096.00
2023-04-12T09:48:36.253Z,1208.00
2023-04-12T09:49:36.290Z,1245.00
2023-04-12T09:50:36.322Z,1336.00
2023-04-12T09:51:36.455Z,1475.00
2023-04-12T09:52:36.680Z,1454.00
2023-04-12T09:53:36.500Z,1472.00
2023-04-12T09:54:36.494Z,1544.00
2023-04-12T09:55:35.506Z,1562.00
2023-04-12T09:56:36.588Z,1582.00
2023-04-12T09:57:36.548Z,1634.00
2023-04-12T09:58:36.551Z,1652.00
2023-04-12T09:59:36.597Z,1681.00
2023-04-12T10:00:36.548Z,1742.00
2023-04-12T10:01:36.632Z,1785.00
2023-04-12T10:02:36.770Z,1793.00
2023-04-12T10:03:36.639Z,1803.00
2023-04-12T10:04:36.655Z,1827.00
2023-04-12T10:05:36.716Z,1881.00
2023-04-12T10:06:36.538Z,1913.00
2023-04-12T10:07:35.570Z,1933.00
2023-04-12T10:08:35.596Z,1950.00
2023-04-12T10:09:36.629Z,1986.00
2023-04-12T10:10:36.711Z,2023.00
2023-04-12T10:11:36.722Z,2043.00
2023-04-12T10:12:35.788Z,2065.00
2023-04-12T10:13:36.877Z,2091.00
2023-04-12T10:14:35.911Z,2133.00
2023-04-12T10:15:35.998Z,2171.00
2023-04-12T10:16:36.072Z,2185.00
2023-04-12T10:17:37.199Z,2208.00
2023-04-12T10:18:37.207Z,2262.00
2023-04-12T10:19:37.230Z,2305.00
2023-04-12T10:20:36.292Z,2338.00
2023-04-12T10:21:37.325Z,2366.00
2023-04-12T10:22:36.409Z,2393.00
2023-04-12T10:23:37.504Z,2407.00
2023-04-12T10:24:36.531Z,2436.00
2023-04-12T10:25:36.602Z,2488.00
2023-04-12T10:26:37.600Z,2512.00
2023-04-12T10:27:36.649Z,2529.00
2023-04-12T10:28:37.708Z,2564.00
2023-04-12T10:29:37.779Z,2592.00
2023-04-12T10:30:37.859Z,2618.00
2023-04-12T10:31:37.958Z,2636.00
2023-04-12T10:32:36.939Z,2670.00
2023-04-12T10:33:36.997Z,2713.00
2023-04-12T10:34:38.001Z,2742.00
2023-04-12T10:35:38.076Z,2755.00
2023-04-12T10:36:38.115Z,2771.00
2023-04-12T10:37:38.163Z,2792.00
2023-04-12T10:38:38.252Z,2841.00
2023-04-12T10:39:37.238Z,2861.00
2023-04-12T10:40:38.310Z,2885.00
2023-04-12T10:41:38.337Z,2923.00
2023-04-12T10:42:38.387Z,2943.00
2023-04-12T10:43:38.712Z,2968.00
2023-04-12T10:44:38.413Z,2986.00
2023-04-12T10:45:38.469Z,3001.00
2023-04-12T10:46:39.145Z,3012.00
2023-04-12T10:47:38.581Z,3033.00
2023-04-12T10:48:38.675Z,3019.00
2023-04-12T10:49:37.703Z,2844.00
2023-04-12T10:50:37.735Z,2839.00
2023-04-12T10:51:38.819Z,2818.00
2023-04-12T10:52:37.848Z,2782.00
2023-04-12T10:53:38.954Z,2734.00
2023-04-12T10:54:37.929Z,2710.00
2023-04-12T10:55:38.968Z,2661.00
2023-04-12T10:56:39.003Z,2623.00
2023-04-12T10:57:38.995Z,2589.00
2023-04-12T10:58:38.043Z,2543.00
2023-04-12T10:59:47.378Z,2520.00
2023-04-12T11:00:39.175Z,2499.00
2023-04-12T11:01:39.728Z,2461.00
2023-04-12T11:02:39.298Z,2422.00
2023-04-12T11:03:38.245Z,2413.00
2023-04-12T11:04:39.145Z,2406.00
2023-04-12T11:05:38.224Z,2398.00
2023-04-12T11:06:38.974Z,2393.00
2023-04-12T11:07:38.983Z,2379.00
2023-04-12T11:08:39.012Z,2361.00
2023-04-12T11:09:37.993Z,2344.00
2023-04-12T11:10:38.039Z,2328.00
2023-04-12T11:11:38.073Z,2309.00
2023-04-12T11:12:38.184Z,2297.00
2023-04-12T11:13:39.220Z,2289.00
2023-04-12T11:14:39.314Z,2283.00
2023-04-12T11:15:38.304Z,2283.00
2023-04-12T11:16:39.520Z,2287.00
2023-04-12T11:17:38.474Z,2280.00
2023-04-12T11:18:39.684Z,2276.00
2023-04-12T11:19:38.614Z,2263.00
2023-04-12T11:20:38.639Z,2235.00
2023-04-12T11:21:39.693Z,2216.00
2023-04-12T11:22:39.695Z,2198.00
2023-04-12T11:23:38.779Z,2189.00
2023-04-12T11:24:39.850Z,2187.00
2023-04-12T11:25:39.883Z,2183.00
2023-04-12T11:26:40.676Z,2181.00
2023-04-12T11:27:39.987Z,2175.00
2023-04-12T11:28:40.069Z,2157.00
2023-04-12T11:29:39.103Z,2138.00
2023-04-12T11:30:40.157Z,2122.00
2023-04-12T11:31:40.288Z,2115.00
2023-04-12T11:32:39.395Z,2106.00
2023-04-12T11:33:40.376Z,2095.00
2023-04-12T11:34:39.432Z,2089.00
2023-04-12T11:35:40.485Z,2084.00
2023-04-12T11:36:40.543Z,2102.00
2023-04-12T11:37:40.587Z,2106.00
2023-04-12T11:38:39.660Z,2108.00
2023-04-12T11:39:40.706Z,2114.00
2023-04-12T11:40:40.783Z,2124.00
2023-04-12T11:41:39.803Z,2133.00
2023-04-12T11:42:40.832Z,2142.00
2023-04-12T11:43:41.256Z,2146.00
2023-04-12T11:44:55.110Z,2150.00
2023-04-12T11:45:40.870Z,2148.00
2023-04-12T11:46:39.830Z,2148.00
2023-04-12T11:47:40.862Z,2147.00
2023-04-12T11:48:39.882Z,2146.00
2023-04-12T11:49:40.788Z,2144.00
2023-04-12T11:50:40.878Z,2145.00
2023-04-12T11:51:40.775Z,2142.00
2023-04-12T11:52:40.804Z,2147.00
2023-04-12T11:53:39.827Z,2152.00
2023-04-12T11:54:40.798Z,2156.00
2023-04-12T11:55:40.755Z,2156.00
2023-04-12T11:56:40.737Z,2158.00
2023-04-12T11:57:40.745Z,2159.00
2023-04-12T11:58:39.753Z,2155.00
2023-04-12T11:59:40.745Z,2150.00
2023-04-12T12:00:40.777Z,2149.00
2023-04-12T12:01:40.786Z,2146.00
2023-04-12T12:02:46.675Z,2143.00
2023-04-12T12:03:41.438Z,2140.00
2023-04-12T12:04:40.865Z,2139.00
2023-04-12T12:05:42.063Z,2137.00
2023-04-12T12:06:43.044Z,2135.00
2023-04-12T12:07:41.970Z,2137.00
2023-04-12T12:08:39.699Z,2132.00
2023-04-12T12:09:41.211Z,2133.00
2023-04-12T12:10:55.471Z,2130.00
2023-04-12T12:11:40.682Z,2129.00
2023-04-12T12:12:39.623Z,2131.00
2023-04-12T12:13:41.068Z,2138.00
2023-04-12T12:14:39.621Z,2145.00
2023-04-12T12:15:42.163Z,2143.00
2023-04-12T12:16:40.736Z,2138.00
2023-04-12T12:17:40.777Z,2143.00
2023-04-12T12:18:40.781Z,2135.00